Overview Statistics Trail Chart Weather Telemetry Raw packets
 

This is the latest recevied weather packets stored in our database for station/object KD7AWQ. If no packets are shown the sender has not sent any weather packets the latest 10 day(s).

<< 28 29 30 31 32 33 34 >>
Time Temp. Humidity Pressure Rain* Wind** Luminosity Snow
1788245065 20° C 68% 1189.2 hPa 0 mm - 0 W/m² -
1788244762 20° C 68% 1189.1 hPa 0 mm - 0 W/m² -
1788244458 20.56° C 67% 1189.1 hPa 0 mm - 0 W/m² -
1788244154 20.56° C 64% 1189 hPa 0 mm - 0 W/m² -
1788243850 20.56° C 62% 1189.1 hPa 0 mm - 0 W/m² -
1788243545 21.67° C 58% 1189.1 hPa 0 mm - 0 W/m² -
1788243241 21.67° C 56% 1188.9 hPa 0 mm - 0 W/m² -
1788242935 21.67° C 55% 1189.1 hPa 0 mm - 0 W/m² -
1788242632 22.22° C 54% 1189 hPa 0 mm - 0 W/m² -
1788242331 22.22° C 53% 1189 hPa 0 mm - 0 W/m² -
1788242027 22.22° C 53% 1188.9 hPa 0 mm - 0 W/m² -
1788241724 22.22° C 53% 1188.9 hPa 0 mm - 0 W/m² -
1788241430 22.22° C 52% 1188.9 hPa 0 mm - 0 W/m² -
1788241116 22.22° C 52% 1188.7 hPa 0 mm - 0 W/m² -
1788240811 22.22° C 52% 1188.6 hPa 0 mm - 0 W/m² -
1788240507 22.22° C 52% 1188.7 hPa 0 mm - 0 W/m² -
1788240202 22.22° C 52% 1188.7 hPa 0 mm - 0 W/m² -
1788239901 22.22° C 51% 1189 hPa 0 mm - 0 W/m² -
1788239596 22.22° C 51% 1188.8 hPa 0 mm - 0 W/m² -
1788239291 22.78° C 50% 1188.4 hPa 0 mm - 0 W/m² -
1788238987 22.78° C 49% 1188.8 hPa 0 mm - 0 W/m² -
1788238682 22.78° C 49% 1188.9 hPa 0 mm - 0 W/m² -
1788238376 22.22° C 50% 1188.9 hPa 0 mm - 0 W/m² -
1788238072 22.78° C 49% 1188.8 hPa 0 mm - 0 W/m² -
1788237768 22.78° C 49% 1189 hPa 0 mm - 0 W/m² -

* Rain latest hour (hover to see other rain measurements)
** Current wind speed in m/s (hover to see current wind gust speed)